Time;durP1;ratioP1;P1;durP2;ratioP2;P2;SDS_P1;SDS_P2;PMS_P1;PMS_P2;Temp;Humidity;BMP_temperature;BMP_pressure;BME280_temperature;BME280_humidity;BME280_pressure;Samples;Min_cycle;Max_cycle;Signal;HPM_P1;HPM_P2
2022/09/27 00:00:11;;;;;;;4.45;0.32;;;10.60;86.00;;;;;;5069979;28;20494;-72
2022/09/27 00:02:41;;;;;;;6.18;0.60;;;10.60;85.80;;;;;;5070496;28;20136;-72
2022/09/27 00:05:08;;;;;;;5.47;0.60;;;10.60;85.80;;;;;;5068902;28;20053;-72
2022/09/27 00:07:36;;;;;;;3.83;0.50;;;10.50;85.60;;;;;;5068644;28;20060;-72
2022/09/27 00:10:04;;;;;;;2.00;0.20;;;10.50;85.60;;;;;;5069794;28;20249;-72
2022/09/27 00:12:31;;;;;;;3.75;0.30;;;10.40;85.60;;;;;;5069653;28;20067;-72
2022/09/27 00:14:58;;;;;;;3.33;0.20;;;10.40;85.50;;;;;;5069399;28;20045;-72
2022/09/27 00:17:25;;;;;;;3.22;0.32;;;10.40;85.40;;;;;;5068527;28;20561;-72
2022/09/27 00:19:54;;;;;;;5.67;0.53;;;10.30;85.40;;;;;;5068685;28;20059;-73
2022/09/27 00:22:21;;;;;;;4.18;0.30;;;10.30;85.50;;;;;;5068623;28;20932;-72
2022/09/27 00:24:50;;;;;;;6.38;0.30;;;10.20;85.50;;;;;;5069803;28;20053;-72
2022/09/27 00:27:17;;;;;;;2.42;0.30;;;10.20;85.60;;;;;;5068581;28;20055;-71
2022/09/27 00:29:44;;;;;;;3.42;0.20;;;10.10;85.50;;;;;;5067744;28;20507;-72
2022/09/27 00:32:12;;;;;;;3.23;0.20;;;10.10;85.70;;;;;;5051530;28;20132;-73
2022/09/27 00:34:39;;;;;;;4.95;0.38;;;10.10;85.70;;;;;;5068650;28;20271;-72
2022/09/27 00:37:06;;;;;;;5.25;0.52;;;10.00;85.70;;;;;;5051497;28;20136;-72
2022/09/27 00:39:33;;;;;;;4.15;0.22;;;10.00;85.80;;;;;;5051415;28;20128;-72
2022/09/27 00:42:01;;;;;;;2.83;0.20;;;10.00;85.90;;;;;;5071808;28;20049;-72
2022/09/27 00:45:09;;;;;;;4.77;0.27;;;10.00;85.90;;;;;;5055700;28;20049;-72
2022/09/27 00:47:42;;;;;;;3.35;0.20;;;10.00;86.10;;;;;;5072504;28;20367;-72
2022/09/27 00:50:26;;;;;;;1.98;0.30;;;10.00;86.00;;;;;;5055301;28;20052;-73
2022/09/27 00:53:02;;;;;;;3.58;0.30;;;10.00;86.10;;;;;;5072211;28;20144;-71
2022/09/27 00:55:32;;;;;;;1.83;0.20;;;10.00;86.10;;;;;;5055410;28;20069;-72
2022/09/27 00:58:01;;;;;;;2.30;0.27;;;10.00;86.20;;;;;;5055261;28;20060;-72
2022/09/27 01:00:28;;;;;;;1.85;0.10;;;9.90;86.40;;;;;;5073021;28;20861;-72
2022/09/27 01:02:56;;;;;;;2.42;0.22;;;9.80;86.70;;;;;;5071830;28;20041;-72
2022/09/27 01:05:26;;;;;;;2.38;0.10;;;9.80;86.70;;;;;;5055515;28;20045;-72
2022/09/27 01:07:55;;;;;;;3.08;0.30;;;9.80;86.60;;;;;;5055089;28;20053;-71
2022/09/27 01:10:25;;;;;;;2.20;0.20;;;9.80;86.80;;;;;;5071603;28;20104;-72
2022/09/27 01:13:06;;;;;;;2.97;0.60;;;9.80;86.90;;;;;;5054840;28;20252;-72
2022/09/27 01:15:40;;;;;;;2.80;0.40;;;9.80;86.80;;;;;;5054367;28;20543;-72
2022/09/27 01:18:23;;;;;;;3.88;0.20;;;9.80;86.80;;;;;;5071320;28;20053;-72
2022/09/27 01:21:10;;;;;;;2.95;0.32;;;9.80;86.90;;;;;;5072751;28;20057;-72
2022/09/27 01:24:03;;;;;;;2.07;0.20;;;9.80;87.20;;;;;;5071990;28;20085;-72
2022/09/27 01:26:45;;;;;;;3.40;0.38;;;9.80;87.40;;;;;;5054660;28;20729;-72
2022/09/27 01:29:22;;;;;;;4.05;0.20;;;9.80;87.80;;;;;;5054504;28;20053;-72
2022/09/27 01:32:00;;;;;;;3.42;0.20;;;9.80;87.90;;;;;;5071491;28;20048;-72
2022/09/27 01:34:35;;;;;;;2.88;0.20;;;9.80;87.80;;;;;;5073055;28;20750;-72
2022/09/27 01:37:10;;;;;;;3.50;0.30;;;9.80;88.00;;;;;;5054870;28;20138;-72
2022/09/27 01:39:46;;;;;;;2.53;0.20;;;9.80;87.90;;;;;;5053730;28;20287;-71
2022/09/27 01:42:48;;;;;;;1.42;0.10;;;9.80;87.70;;;;;;5016604;28;20133;-72
2022/09/27 01:45:22;;;;;;;1.92;0.10;;;9.80;87.60;;;;;;5054232;28;20140;-72
2022/09/27 01:48:12;;;;;;;1.90;0.20;;;9.80;87.80;;;;;;5070641;28;20041;-71
2022/09/27 01:50:59;;;;;;;3.43;0.33;;;9.80;87.70;;;;;;5054142;28;20056;-72
2022/09/27 01:53:31;;;;;;;3.60;0.38;;;9.80;87.80;;;;;;5071633;28;20288;-72
2022/09/27 01:56:26;;;;;;;4.10;0.40;;;9.80;88.00;;;;;;5069977;28;20176;-71
2022/09/27 01:59:02;;;;;;;3.53;0.43;;;9.70;87.90;;;;;;5070998;28;20056;-72
2022/09/27 02:01:34;;;;;;;3.67;0.50;;;9.70;87.70;;;;;;5054122;28;20076;-72
2022/09/27 02:04:05;;;;;;;1.80;0.20;;;9.70;87.70;;;;;;5070483;28;20072;-71
2022/09/27 02:07:06;;;;;;;2.30;0.30;;;9.70;87.60;;;;;;5070040;28;20263;-72
2022/09/27 02:09:38;;;;;;;5.68;0.40;;;9.70;87.60;;;;;;5070291;28;20048;-72
2022/09/27 02:12:22;;;;;;;4.00;0.30;;;9.70;87.50;;;;;;5053567;28;20677;-72
2022/09/27 02:14:55;;;;;;;6.03;0.50;;;9.70;87.50;;;;;;5070556;28;20672;-72
2022/09/27 02:17:34;;;;;;;2.20;0.30;;;9.70;87.30;;;;;;5070276;28;20061;-72
2022/09/27 02:20:11;;;;;;;2.95;0.28;;;9.70;87.50;;;;;;5070065;28;20296;-72
2022/09/27 02:22:49;;;;;;;2.47;0.28;;;9.70;87.40;;;;;;5053114;28;20055;-72
2022/09/27 02:25:24;;;;;;;3.92;0.20;;;9.60;87.40;;;;;;5053055;28;20048;-72
2022/09/27 02:28:03;;;;;;;1.00;0.10;;;9.70;87.30;;;;;;5070204;28;20049;-72
2022/09/27 02:30:34;;;;;;;4.23;0.33;;;9.60;87.20;;;;;;5053060;28;20052;-71
2022/09/27 02:33:14;;;;;;;1.90;0.20;;;9.60;87.40;;;;;;5070457;28;20275;-71
2022/09/27 02:35:44;;;;;;;3.83;0.30;;;9.60;87.40;;;;;;5070248;28;20527;-72
2022/09/27 02:38:11;;;;;;;4.05;0.40;;;9.70;87.50;;;;;;5070127;28;20107;-72
2022/09/27 02:40:44;;;;;;;2.75;0.40;;;9.70;87.40;;;;;;5069742;28;20049;-72
2022/09/27 02:43:14;;;;;;;3.43;0.20;;;9.70;87.50;;;;;;5053208;28;20135;-72
2022/09/27 02:45:54;;;;;;;4.00;0.20;;;9.70;87.30;;;;;;5052836;28;20263;-73
2022/09/27 02:48:30;;;;;;;2.75;0.20;;;9.70;87.60;;;;;;5053203;28;20152;-71
2022/09/27 02:51:14;;;;;;;3.20;0.40;;;9.70;87.60;;;;;;5069630;28;20606;-72
2022/09/27 02:53:59;;;;;;;3.08;0.10;;;9.70;87.50;;;;;;5070257;28;20613;-71
2022/09/27 02:57:03;;;;;;;1.50;0.20;;;9.70;87.40;;;;;;5038040;28;20203;-72
2022/09/27 02:59:49;;;;;;;1.73;0.10;;;9.70;87.20;;;;;;5069724;28;20248;-72
2022/09/27 03:02:44;;;;;;;0.88;0.10;;;9.70;87.20;;;;;;5052526;28;20041;-72
2022/09/27 03:05:39;;;;;;;1.35;0.15;;;9.60;87.00;;;;;;5052932;28;20103;-72
2022/09/27 03:08:07;;;;;;;2.17;0.50;;;9.60;86.90;;;;;;5069875;28;20045;-72
2022/09/27 03:10:34;;;;;;;1.73;0.10;;;9.60;86.80;;;;;;5052756;28;20049;-72
2022/09/27 03:13:03;;;;;;;1.88;0.10;;;9.70;86.80;;;;;;5052939;28;20252;-73
2022/09/27 03:15:30;;;;;;;2.80;0.20;;;9.60;86.60;;;;;;5052574;28;20083;-72
2022/09/27 03:18:00;;;;;;;1.02;0.10;;;9.70;86.60;;;;;;5069822;28;20103;-72
2022/09/27 03:20:36;;;;;;;3.97;0.30;;;9.60;86.60;;;;;;5069531;28;20439;-72
2022/09/27 03:23:18;;;;;;;1.73;0.20;;;9.70;86.60;;;;;;5069970;28;20549;-72
2022/09/27 03:25:46;;;;;;;0.75;0.10;;;9.70;86.60;;;;;;5052388;28;20283;-72
2022/09/27 03:28:13;;;;;;;2.22;0.10;;;9.70;86.60;;;;;;5069913;28;20137;-73
2022/09/27 03:30:44;;;;;;;2.00;0.15;;;9.60;86.60;;;;;;5052041;28;20060;-72
2022/09/27 03:33:13;;;;;;;3.20;0.73;;;9.60;86.60;;;;;;5052789;28;20544;-72
2022/09/27 03:35:57;;;;;;;3.40;0.30;;;9.60;86.60;;;;;;5068852;28;20713;-73
2022/09/27 03:38:26;;;;;;;3.45;0.20;;;9.60;86.60;;;;;;5052243;28;20350;-73
2022/09/27 03:40:53;;;;;;;2.70;0.40;;;9.60;86.70;;;;;;5052077;28;20053;-72
2022/09/27 03:43:20;;;;;;;4.97;0.40;;;9.60;86.60;;;;;;5050916;28;20601;-72
2022/09/27 03:45:47;;;;;;;5.65;0.50;;;9.60;86.60;;;;;;5069417;28;20071;-72
2022/09/27 03:48:14;;;;;;;6.73;0.77;;;9.60;86.60;;;;;;5067946;28;20392;-72
2022/09/27 03:50:41;;;;;;;4.70;0.60;;;9.60;86.60;;;;;;5067988;28;20499;-72
2022/09/27 03:53:08;;;;;;;6.00;1.00;;;9.60;86.60;;;;;;5051126;28;20599;-72
2022/09/27 03:55:36;;;;;;;3.42;0.32;;;9.60;86.60;;;;;;5040378;28;20057;-72
2022/09/27 03:58:04;;;;;;;3.70;0.30;;;9.60;86.60;;;;;;5031919;28;20053;-72
2022/09/27 04:00:32;;;;;;;5.10;0.90;;;9.60;86.70;;;;;;5048525;28;20135;-72
2022/09/27 04:03:00;;;;;;;1.92;0.10;;;9.50;86.70;;;;;;5032107;28;20249;-72
2022/09/27 04:05:28;;;;;;;3.33;0.32;;;9.50;86.70;;;;;;5049486;28;20419;-72
2022/09/27 04:08:09;;;;;;;2.55;0.20;;;9.50;86.60;;;;;;5048822;28;20058;-72
2022/09/27 04:10:38;;;;;;;1.70;0.10;;;9.50;86.60;;;;;;5032339;28;20050;-72
2022/09/27 04:13:05;;;;;;;3.57;0.20;;;9.50;86.60;;;;;;5032230;28;20056;-72
2022/09/27 04:15:39;;;;;;;2.95;0.20;;;9.40;86.60;;;;;;5034665;28;20279;-72
2022/09/27 04:18:25;;;;;;;1.95;0.10;;;9.40;86.60;;;;;;5053581;28;20147;-72
2022/09/27 04:21:07;;;;;;;1.88;0.10;;;9.40;86.50;;;;;;5052084;28;20366;-72
2022/09/27 04:23:36;;;;;;;2.67;0.20;;;9.40;86.50;;;;;;5052429;28;20053;-71
2022/09/27 04:26:06;;;;;;;1.90;0.20;;;9.40;86.40;;;;;;5035593;28;20143;-72
2022/09/27 04:28:50;;;;;;;1.13;0.10;;;9.40;86.40;;;;;;5035344;28;20253;-73
2022/09/27 04:31:17;;;;;;;1.10;0.10;;;9.40;86.30;;;;;;5035783;28;20136;-72
2022/09/27 04:33:47;;;;;;;1.67;0.10;;;9.40;86.30;;;;;;5052213;28;20056;-72
2022/09/27 04:36:25;;;;;;;0.70;0.10;;;9.30;86.40;;;;;;5035695;28;20045;-72
2022/09/27 04:39:05;;;;;;;1.40;0.20;;;9.30;86.40;;;;;;5035013;28;20574;-72
2022/09/27 04:41:35;;;;;;;2.45;0.20;;;9.20;86.40;;;;;;5035727;28;20292;-72
2022/09/27 04:44:05;;;;;;;3.25;0.10;;;9.20;86.50;;;;;;5051987;28;20077;-72
2022/09/27 04:46:33;;;;;;;3.28;0.20;;;9.20;86.40;;;;;;5051828;28;20519;-72
2022/09/27 04:49:01;;;;;;;2.55;0.10;;;9.20;86.50;;;;;;5051695;28;20609;-72
2022/09/27 04:51:29;;;;;;;4.37;0.20;;;9.20;86.50;;;;;;5051733;28;20495;-72
2022/09/27 04:53:58;;;;;;;1.52;0.10;;;9.20;86.50;;;;;;5035300;28;20276;-72
2022/09/27 04:56:31;;;;;;;1.88;0.10;;;9.20;86.40;;;;;;5051505;28;20244;-72
2022/09/27 04:59:00;;;;;;;2.45;0.20;;;9.20;86.30;;;;;;5034773;28;20503;-72
2022/09/27 05:01:27;;;;;;;1.13;0.00;;;9.20;86.30;;;;;;5051579;28;20396;-72
2022/09/27 05:04:12;;;;;;;2.80;0.20;;;9.20;86.20;;;;;;5051664;28;20595;-72
2022/09/27 05:06:43;;;;;;;3.13;0.10;;;9.20;86.20;;;;;;5034841;28;20276;-72
2022/09/27 05:09:18;;;;;;;2.03;0.20;;;9.20;86.20;;;;;;5051411;28;20053;-72
2022/09/27 05:11:52;;;;;;;1.58;0.13;;;9.10;86.10;;;;;;5037546;28;20084;-71
2022/09/27 05:14:40;;;;;;;3.20;0.30;;;9.10;86.20;;;;;;5051503;28;20038;-72
2022/09/27 05:17:17;;;;;;;1.80;0.10;;;9.00;86.20;;;;;;5053062;28;20470;-72
2022/09/27 05:20:10;;;;;;;1.40;0.20;;;9.00;86.20;;;;;;5051267;28;20391;-72
2022/09/27 05:22:43;;;;;;;2.33;0.20;;;9.00;86.20;;;;;;5051853;28;20046;-71
2022/09/27 05:25:10;;;;;;;2.58;0.20;;;9.00;86.20;;;;;;5051446;28;20056;-72
2022/09/27 05:27:38;;;;;;;2.22;0.22;;;9.00;86.20;;;;;;5034220;28;20939;-72
2022/09/27 05:30:07;;;;;;;3.33;0.20;;;9.00;86.20;;;;;;5034534;28;20046;-72
2022/09/27 05:32:44;;;;;;;4.25;0.38;;;9.00;86.20;;;;;;5030563;28;20793;-72
2022/09/27 05:35:26;;;;;;;2.25;0.10;;;8.90;86.20;;;;;;5048412;28;20455;-72
2022/09/27 05:37:56;;;;;;;2.38;0.20;;;8.90;86.20;;;;;;5052258;28;20136;-71
2022/09/27 05:40:24;;;;;;;3.22;0.30;;;8.90;86.20;;;;;;5034668;28;20053;-72
2022/09/27 05:42:52;;;;;;;3.60;0.30;;;8.90;86.20;;;;;;5034808;28;20755;-72
2022/09/27 05:45:22;;;;;;;3.38;0.40;;;8.90;86.30;;;;;;5051157;28;20347;-71
2022/09/27 05:47:53;;;;;;;3.00;0.30;;;8.90;86.30;;;;;;5050719;28;20053;-71
2022/09/27 05:50:21;;;;;;;2.55;0.32;;;8.80;86.30;;;;;;5050983;28;20080;-71
2022/09/27 05:52:49;;;;;;;1.35;0.10;;;8.80;86.30;;;;;;5034483;28;20558;-72
2022/09/27 05:55:17;;;;;;;2.87;0.30;;;8.80;86.30;;;;;;5034264;28;20535;-72
2022/09/27 05:57:55;;;;;;;2.22;0.25;;;8.80;86.20;;;;;;5034244;28;20400;-71
2022/09/27 06:00:26;;;;;;;2.30;0.20;;;8.80;86.40;;;;;;5031870;28;20061;-71
2022/09/27 06:02:55;;;;;;;2.40;0.35;;;8.70;86.50;;;;;;5031810;28;20144;-71
2022/09/27 06:05:41;;;;;;;2.97;0.30;;;8.80;86.50;;;;;;5047742;28;20489;-71
2022/09/27 06:08:35;;;;;;;2.30;0.20;;;8.80;86.60;;;;;;5029108;28;20061;-71
2022/09/27 06:11:04;;;;;;;4.20;0.30;;;8.80;86.70;;;;;;5032440;28;20792;-71
2022/09/27 06:13:33;;;;;;;3.08;0.22;;;8.80;86.70;;;;;;5033587;28;20041;-72
2022/09/27 06:16:03;;;;;;;2.83;0.20;;;8.80;86.80;;;;;;5032881;28;20045;-72
2022/09/27 06:18:30;;;;;;;5.80;0.70;;;8.80;86.90;;;;;;5031681;28;20050;-72
2022/09/27 06:21:00;;;;;;;3.17;0.47;;;8.80;86.90;;;;;;5048163;28;20062;-72
2022/09/27 06:23:31;;;;;;;2.15;0.20;;;8.80;86.90;;;;;;5031989;28;20284;-72
2022/09/27 06:26:02;;;;;;;3.97;0.30;;;8.80;87.00;;;;;;5032841;28;20610;-71
2022/09/27 06:28:51;;;;;;;3.35;0.30;;;8.90;87.50;;;;;;5047779;28;20057;-71
2022/09/27 06:31:20;;;;;;;2.60;0.38;;;8.90;87.60;;;;;;5050190;28;20053;-71
2022/09/27 06:33:52;;;;;;;3.60;0.33;;;8.90;87.70;;;;;;5050627;28;20080;-72
2022/09/27 06:36:19;;;;;;;2.10;0.22;;;8.90;87.60;;;;;;5033660;28;20277;-71
2022/09/27 06:38:47;;;;;;;4.28;0.22;;;8.90;87.60;;;;;;5032485;28;20886;-72
2022/09/27 06:41:18;;;;;;;3.22;0.43;;;8.90;87.50;;;;;;5033858;28;20411;-71
2022/09/27 06:44:06;;;;;;;3.03;0.30;;;8.90;87.50;;;;;;5033521;28;20135;-72
2022/09/27 06:46:38;;;;;;;2.50;0.30;;;8.90;87.50;;;;;;5050355;28;20052;-71
2022/09/27 06:49:12;;;;;;;4.45;0.30;;;8.90;87.50;;;;;;5049590;28;20320;-71
2022/09/27 06:51:41;;;;;;;4.15;0.40;;;9.00;87.40;;;;;;5029480;28;20053;-71
2022/09/27 06:54:08;;;;;;;2.97;0.43;;;9.00;87.60;;;;;;5030524;28;20733;-71
2022/09/27 06:56:35;;;;;;;1.92;0.20;;;9.00;87.60;;;;;;5030716;28;20046;-71
2022/09/27 07:01:52;;;;;;;4.35;0.30;;;9.00;87.60;;;;;;5030211;28;20256;-71
2022/09/27 07:04:43;;;;;;;4.00;0.30;;;9.00;87.80;;;;;;5029885;28;20080;-71
2022/09/27 07:07:38;;;;;;;2.88;0.30;;;9.00;87.90;;;;;;5012101;28;20050;-71
2022/09/27 07:10:06;;;;;;;3.92;0.40;;;9.00;88.00;;;;;;5031547;28;20133;-72
2022/09/27 07:12:35;;;;;;;3.87;0.40;;;9.10;87.90;;;;;;5010462;28;20132;-71
2022/09/27 07:15:02;;;;;;;2.97;0.20;;;9.10;87.80;;;;;;5010844;28;20289;-72
2022/09/27 07:17:31;;;;;;;2.55;0.30;;;9.20;87.80;;;;;;5026571;28;20054;-71
2022/09/27 07:19:58;;;;;;;4.57;0.40;;;9.20;87.90;;;;;;5011162;28;20125;-72
2022/09/27 07:22:25;;;;;;;4.28;0.35;;;9.20;87.80;;;;;;5011816;28;21032;-71
2022/09/27 07:24:56;;;;;;;4.73;0.73;;;9.20;87.90;;;;;;5012442;28;20054;-72
2022/09/27 07:27:25;;;;;;;2.15;0.30;;;9.20;87.90;;;;;;5012673;28;20261;-72
2022/09/27 07:29:53;;;;;;;3.50;0.47;;;9.20;88.20;;;;;;5042380;28;20280;-72
2022/09/27 07:32:20;;;;;;;2.03;0.32;;;9.40;88.20;;;;;;5048327;28;20575;-72
2022/09/27 07:34:49;;;;;;;3.00;0.40;;;9.40;88.20;;;;;;5031423;28;20092;-73
2022/09/27 07:37:16;;;;;;;5.30;0.37;;;9.40;88.20;;;;;;5049719;28;20077;-71
2022/09/27 07:39:45;;;;;;;4.88;0.40;;;9.40;88.30;;;;;;5031176;28;20291;-72
2022/09/27 07:42:27;;;;;;;2.38;0.30;;;9.40;88.50;;;;;;5054283;28;20185;-72
2022/09/27 07:45:01;;;;;;;2.60;0.50;;;9.50;88.70;;;;;;5049787;28;20049;-72
2022/09/27 07:47:40;;;;;;;3.28;0.38;;;9.50;88.70;;;;;;5012595;28;20050;-72
2022/09/27 07:50:13;;;;;;;1.23;0.20;;;9.60;88.60;;;;;;5029136;28;20054;-72
2022/09/27 07:52:58;;;;;;;2.88;0.20;;;9.60;88.50;;;;;;5029479;28;20245;-72
2022/09/27 07:55:29;;;;;;;2.40;0.25;;;9.70;88.70;;;;;;5032183;28;20141;-72
2022/09/27 07:58:04;;;;;;;3.65;0.20;;;9.70;88.70;;;;;;5040905;28;20061;-72
2022/09/27 08:00:31;;;;;;;1.33;0.10;;;9.80;88.60;;;;;;5048872;28;20064;-72
2022/09/27 08:02:59;;;;;;;2.43;0.30;;;9.90;88.50;;;;;;5038064;28;20232;-72
2022/09/27 08:05:27;;;;;;;1.63;0.28;;;10.00;88.30;;;;;;5048346;28;20257;-72
2022/09/27 08:07:56;;;;;;;4.20;0.28;;;10.00;88.30;;;;;;5045031;28;20045;-71
2022/09/27 08:10:26;;;;;;;4.13;0.30;;;10.10;88.70;;;;;;5031017;28;20393;-72
2022/09/27 08:12:53;;;;;;;4.03;0.20;;;10.10;88.40;;;;;;5057964;28;20537;-71
2022/09/27 08:15:20;;;;;;;2.90;0.20;;;10.20;88.50;;;;;;5028325;28;20042;-72
2022/09/27 08:17:47;;;;;;;3.92;0.40;;;10.30;88.00;;;;;;5029604;28;20296;-72
2022/09/27 08:20:23;;;;;;;1.15;0.10;;;10.40;87.70;;;;;;5027714;28;20045;-72
2022/09/27 08:23:07;;;;;;;2.95;0.25;;;10.50;87.50;;;;;;5028820;28;20771;-72
2022/09/27 08:25:42;;;;;;;2.63;0.30;;;10.50;87.20;;;;;;5026887;28;20635;-72
2022/09/27 08:28:27;;;;;;;1.80;0.10;;;10.50;87.00;;;;;;5029952;28;20121;-72
2022/09/27 08:31:00;;;;;;;2.90;0.20;;;10.50;86.50;;;;;;5029094;28;20261;-72
2022/09/27 08:33:27;;;;;;;2.08;0.20;;;10.60;86.20;;;;;;5047245;28;20065;-73
2022/09/27 08:35:54;;;;;;;2.58;0.10;;;10.60;86.30;;;;;;5030754;28;20057;-73
2022/09/27 08:38:22;;;;;;;1.02;0.10;;;10.60;86.40;;;;;;5031177;28;20049;-72
2022/09/27 08:40:55;;;;;;;2.17;0.30;;;10.70;86.30;;;;;;5047807;28;20053;-72
2022/09/27 08:43:38;;;;;;;3.05;0.20;;;10.70;86.00;;;;;;5030190;28;20316;-72
2022/09/27 08:46:15;;;;;;;2.90;0.30;;;10.70;85.90;;;;;;5045140;28;20527;-73
2022/09/27 08:48:47;;;;;;;2.63;0.22;;;10.70;86.20;;;;;;5046729;28;20085;-73
2022/09/27 08:51:16;;;;;;;3.47;0.30;;;10.80;86.50;;;;;;5030176;28;20145;-73
2022/09/27 08:53:50;;;;;;;2.90;0.30;;;10.80;87.40;;;;;;5030306;28;20124;-73
2022/09/27 08:56:20;;;;;;;3.67;0.38;;;10.90;87.20;;;;;;5031654;28;20257;-73
2022/09/27 08:58:53;;;;;;;4.05;0.43;;;11.00;87.40;;;;;;5030881;28;20053;-72
2022/09/27 09:01:25;;;;;;;3.90;0.43;;;11.10;87.30;;;;;;5031858;28;20556;-72
2022/09/27 09:04:03;;;;;;;4.28;0.40;;;11.10;87.00;;;;;;5049239;28;20140;-73
2022/09/27 09:06:40;;;;;;;2.83;0.20;;;11.30;86.50;;;;;;5033720;28;20104;-73
2022/09/27 09:09:21;;;;;;;3.40;0.20;;;11.30;86.70;;;;;;5029342;28;20262;-74
2022/09/27 09:15:21;;;;;;;2.17;0.10;;;11.30;86.10;;;;;;5013860;28;20050;-73
2022/09/27 09:18:08;;;;;;;3.08;0.35;;;11.30;86.00;;;;;;5040862;28;20125;-73
2022/09/27 09:20:58;;;;;;;2.57;0.20;;;11.30;85.90;;;;;;5033950;28;20575;-72
2022/09/27 09:23:52;;;;;;;3.30;0.30;;;11.30;85.90;;;;;;5050114;28;20356;-72
2022/09/27 09:26:29;;;;;;;2.60;0.20;;;11.40;86.10;;;;;;5033189;28;20052;-72
2022/09/27 09:29:07;;;;;;;4.40;0.40;;;11.30;86.00;;;;;;5031543;28;20057;-72
2022/09/27 09:31:42;;;;;;;3.05;0.30;;;11.30;86.10;;;;;;5029646;28;20045;-72
2022/09/27 09:34:17;;;;;;;1.97;0.20;;;11.30;86.30;;;;;;5032130;28;20519;-72
2022/09/27 09:36:48;;;;;;;3.42;0.20;;;11.30;86.60;;;;;;5032141;28;20654;-72
2022/09/27 09:39:20;;;;;;;2.80;0.47;;;11.30;86.70;;;;;;5032268;28;20057;-72
2022/09/27 09:42:04;;;;;;;3.00;0.20;;;11.30;86.70;;;;;;5051682;28;20517;-72
2022/09/27 09:44:34;;;;;;;0.63;0.08;;;11.30;86.50;;;;;;5026573;28;20045;-72
2022/09/27 09:47:12;;;;;;;4.20;0.27;;;11.30;86.40;;;;;;5033816;28;20049;-72
2022/09/27 09:49:44;;;;;;;1.20;0.10;;;11.30;86.20;;;;;;5022596;28;20261;-72
2022/09/27 09:52:17;;;;;;;2.03;0.10;;;11.30;85.70;;;;;;5055995;28;20153;-76
2022/09/27 09:54:49;;;;;;;3.85;0.40;;;11.30;86.00;;;;;;5047446;28;20046;-72
2022/09/27 09:57:23;;;;;;;1.95;0.20;;;11.30;86.20;;;;;;5033081;28;20059;-72
2022/09/27 09:59:54;;;;;;;2.17;0.20;;;11.30;85.90;;;;;;5029707;28;20050;-72
2022/09/27 10:02:30;;;;;;;3.22;0.17;;;11.30;85.60;;;;;;5029918;28;20699;-72
2022/09/27 10:05:05;;;;;;;1.00;0.10;;;11.30;85.60;;;;;;5029854;28;20057;-73
2022/09/27 10:07:33;;;;;;;1.02;0.08;;;11.30;85.70;;;;;;5026828;28;20051;-72
2022/09/27 10:10:04;;;;;;;1.88;0.17;;;11.30;85.70;;;;;;5033097;28;20244;-73
2022/09/27 10:12:51;;;;;;;1.43;0.20;;;11.40;85.80;;;;;;5049286;28;20046;-73
2022/09/27 10:15:24;;;;;;;0.95;0.10;;;11.40;85.60;;;;;;5035583;28;20840;-73
2022/09/27 10:17:54;;;;;;;0.98;0.10;;;11.40;85.20;;;;;;5033643;28;20068;-73
2022/09/27 10:20:30;;;;;;;3.13;0.10;;;11.40;85.10;;;;;;5048364;28;20435;-73
2022/09/27 10:23:03;;;;;;;1.65;0.20;;;11.40;84.70;;;;;;5031113;28;20589;-74
2022/09/27 10:25:51;;;;;;;1.30;0.10;;;11.40;84.50;;;;;;5046941;28;20518;-73
2022/09/27 10:28:42;;;;;;;2.13;0.20;;;11.40;83.80;;;;;;5046279;28;20257;-74
2022/09/27 10:31:13;;;;;;;2.72;0.20;;;11.40;83.20;;;;;;5021562;28;20068;-73
2022/09/27 10:33:55;;;;;;;1.58;0.17;;;11.50;83.00;;;;;;5041022;28;20058;-74
2022/09/27 10:36:27;;;;;;;2.67;0.20;;;11.50;82.80;;;;;;5031128;28;20128;-73
2022/09/27 10:38:56;;;;;;;2.27;0.20;;;11.50;83.00;;;;;;5032912;28;20507;-73
2022/09/27 10:41:35;;;;;;;1.55;0.10;;;11.50;82.70;;;;;;5030442;28;20934;-72
2022/09/27 10:44:24;;;;;;;2.25;0.10;;;11.60;81.50;;;;;;5031553;28;20073;-75
2022/09/27 10:47:06;;;;;;;0.85;0.10;;;11.70;80.50;;;;;;5031806;28;20119;-72
2022/09/27 10:49:41;;;;;;;3.58;0.68;;;11.60;81.10;;;;;;5048477;28;20064;-72
2022/09/27 10:52:28;;;;;;;2.40;0.50;;;11.70;81.20;;;;;;5031790;28;20056;-73
2022/09/27 10:54:57;;;;;;;2.50;0.30;;;11.70;81.80;;;;;;5047914;28;20267;-72
2022/09/27 10:57:27;;;;;;;1.77;0.20;;;11.70;81.90;;;;;;5048241;28;20136;-72
2022/09/27 10:59:58;;;;;;;1.00;0.20;;;11.80;81.40;;;;;;5048069;28;20062;-72
2022/09/27 11:02:30;;;;;;;1.65;0.20;;;11.90;81.00;;;;;;5047675;28;20458;-72
2022/09/27 11:05:32;;;;;;;1.97;0.20;;;11.90;81.50;;;;;;5049018;28;20054;-73
2022/09/27 11:08:02;;;;;;;1.63;0.20;;;11.90;82.00;;;;;;5048973;28;20276;-72
2022/09/27 11:11:01;;;;;;;3.25;0.25;;;12.00;81.50;;;;;;5032588;28;20049;-73
2022/09/27 11:13:31;;;;;;;0.75;0.10;;;12.00;80.50;;;;;;5033344;28;20054;-73
2022/09/27 11:16:15;;;;;;;1.13;0.10;;;12.10;79.00;;;;;;5048876;28;20148;-73
2022/09/27 11:18:57;;;;;;;2.13;0.17;;;12.00;77.30;;;;;;5032324;28;20077;-73
2022/09/27 11:21:33;;;;;;;1.05;0.10;;;12.00;76.10;;;;;;5063750;28;20750;-73
2022/09/27 11:24:25;;;;;;;0.93;0.20;;;11.90;76.00;;;;;;5029411;28;20041;-73
2022/09/27 11:27:03;;;;;;;1.23;0.13;;;11.90;75.70;;;;;;5028398;28;20041;-73
2022/09/27 11:29:38;;;;;;;1.77;0.20;;;11.80;76.80;;;;;;5047280;28;20049;-73
2022/09/27 11:32:42;;;;;;;1.70;0.13;;;11.70;77.00;;;;;;5047558;28;20053;-74
2022/09/27 11:35:33;;;;;;;3.00;0.10;;;11.70;77.20;;;;;;5031659;28;20258;-74
2022/09/27 11:38:13;;;;;;;1.70;0.15;;;11.70;77.40;;;;;;5030425;28;20074;-73
2022/09/27 11:40:59;;;;;;;2.42;0.10;;;11.80;76.20;;;;;;5031451;28;20038;-73
2022/09/27 11:43:38;;;;;;;1.00;0.10;;;11.90;74.50;;;;;;5047904;28;20597;-73
2022/09/27 11:46:18;;;;;;;2.17;0.20;;;11.90;74.30;;;;;;5044507;28;20057;-73
2022/09/27 11:49:10;;;;;;;1.05;0.10;;;11.90;75.80;;;;;;5048404;28;20269;-73
2022/09/27 11:51:53;;;;;;;1.15;0.10;;;11.90;73.00;;;;;;5025331;28;20431;-74
2022/09/27 11:54:38;;;;;;;1.60;0.10;;;12.00;73.20;;;;;;5032778;28;20086;-73
2022/09/27 11:57:15;;;;;;;0.88;0.10;;;12.00;72.00;;;;;;5049994;28;20489;-72
2022/09/27 12:00:01;;;;;;;0.70;0.00;;;12.00;71.30;;;;;;5031473;28;20156;-73
2022/09/27 12:02:53;;;;;;;0.47;0.05;;;12.00;72.60;;;;;;5049895;28;20285;-73
2022/09/27 12:05:31;;;;;;;0.55;0.00;;;12.00;72.70;;;;;;5031293;28;20618;-73
2022/09/27 12:08:17;;;;;;;0.65;0.10;;;12.00;74.10;;;;;;5030415;28;20112;-74
2022/09/27 12:10:50;;;;;;;1.33;0.10;;;12.10;73.70;;;;;;5035181;28;20056;-74
2022/09/27 12:13:24;;;;;;;0.80;0.10;;;12.10;73.30;;;;;;5029615;28;20046;-74
2022/09/27 12:15:51;;;;;;;0.75;0.10;;;12.10;73.40;;;;;;5029654;28;20365;-73
2022/09/27 12:18:31;;;;;;;1.67;0.10;;;12.20;73.40;;;;;;5045922;28;20496;-74
2022/09/27 12:21:04;;;;;;;1.83;0.13;;;12.30;73.60;;;;;;5030684;28;20069;-74
2022/09/27 12:23:39;;;;;;;0.80;0.10;;;12.30;73.20;;;;;;5029240;28;20061;-73
2022/09/27 12:26:23;;;;;;;0.83;0.00;;;12.40;73.70;;;;;;5048677;28;20136;-73
2022/09/27 12:28:54;;;;;;;2.05;0.10;;;12.40;73.40;;;;;;5047781;28;20826;-75
2022/09/27 12:31:27;;;;;;;3.55;0.20;;;12.50;74.00;;;;;;5029784;28;20050;-74
2022/09/27 12:34:02;;;;;;;2.05;0.10;;;12.50;74.20;;;;;;5047200;28;20049;-74
2022/09/27 12:36:37;;;;;;;6.18;1.92;;;12.50;74.80;;;;;;5033027;28;20049;-73
2022/09/27 12:39:12;;;;;;;2.73;0.30;;;12.50;75.00;;;;;;5031226;28;20042;-73
2022/09/27 12:41:43;;;;;;;1.40;0.20;;;12.50;75.70;;;;;;5032862;28;20400;-74
2022/09/27 12:44:38;;;;;;;2.38;0.20;;;12.50;75.20;;;;;;5031459;28;20161;-74
2022/09/27 12:47:13;;;;;;;3.75;0.25;;;12.50;75.30;;;;;;5014365;28;20053;-73
2022/09/27 12:49:49;;;;;;;0.82;0.10;;;12.50;75.50;;;;;;5038170;28;20621;-74
2022/09/27 12:52:24;;;;;;;2.80;0.40;;;12.50;75.70;;;;;;5051093;28;20053;-74
2022/09/27 12:55:39;;;;;;;3.72;0.20;;;12.40;76.40;;;;;;5034200;28;20356;-73
2022/09/27 12:58:40;;;;;;;2.90;0.40;;;12.40;76.30;;;;;;5032575;28;20046;-73
2022/09/27 13:01:19;;;;;;;2.03;0.20;;;12.30;77.00;;;;;;5035237;28;20131;-74
2022/09/27 13:04:15;;;;;;;3.33;0.38;;;12.30;77.60;;;;;;5035480;28;20049;-74
2022/09/27 13:07:12;;;;;;;2.07;0.20;;;12.30;78.20;;;;;;5038893;28;20128;-74
2022/09/27 13:10:26;;;;;;;3.35;0.30;;;12.40;76.70;;;;;;5034590;28;20256;-74
2022/09/27 13:12:56;;;;;;;3.42;0.20;;;12.40;75.70;;;;;;4977645;28;20042;-74
2022/09/27 13:15:28;;;;;;;2.00;0.20;;;12.40;75.80;;;;;;4974721;28;20058;-74
2022/09/27 13:17:58;;;;;;;3.83;0.30;;;12.40;75.70;;;;;;5006701;28;20554;-73
2022/09/27 13:20:45;;;;;;;1.80;0.10;;;12.40;75.80;;;;;;5048524;28;20046;-74
2022/09/27 13:24:00;;;;;;;1.90;0.15;;;12.50;75.70;;;;;;5049614;28;20260;-73
2022/09/27 13:26:50;;;;;;;3.33;0.30;;;12.40;76.00;;;;;;5029339;28;20603;-74
2022/09/27 13:29:24;;;;;;;3.22;0.30;;;12.40;75.60;;;;;;5032358;28;20053;-73
2022/09/27 13:32:18;;;;;;;2.00;0.20;;;12.50;75.40;;;;;;5049409;28;20056;-73
2022/09/27 13:35:11;;;;;;;3.27;0.20;;;12.40;75.60;;;;;;5035514;28;20076;-75
2022/09/27 13:37:50;;;;;;;2.30;0.10;;;12.40;75.90;;;;;;5050782;28;20598;-73
2022/09/27 13:40:32;;;;;;;1.95;0.10;;;12.30;75.90;;;;;;5034329;28;20049;-73
2022/09/27 13:43:40;;;;;;;2.00;0.20;;;12.30;76.20;;;;;;5034237;28;20037;-73